Time;durP1;ratioP1;P1;durP2;ratioP2;P2;SDS_P1;SDS_P2;PMS_P1;PMS_P2;Temp;Humidity;BMP_temperature;BMP_pressure;BME280_temperature;BME280_humidity;BME280_pressure;Samples;Min_cycle;Max_cycle;Signal;HPM_P1;HPM_P2
2023/12/25 00:00:12;;;;;;;0.43;0.35;;;11.90;65.90;;;;;;4898586;29;20013;-80
2023/12/25 00:02:38;;;;;;;0.63;0.40;;;11.90;63.70;;;;;;4902052;29;20035;-82
2023/12/25 00:05:04;;;;;;;2.28;0.32;;;12.00;62.70;;;;;;4900062;29;20029;-83
2023/12/25 00:07:36;;;;;;;0.17;0.17;;;12.00;63.40;;;;;;4906587;29;20044;-83
2023/12/25 00:10:05;;;;;;;0.20;0.20;;;12.00;62.80;;;;;;4903738;29;20053;-81
2023/12/25 00:12:31;;;;;;;0.17;0.17;;;12.00;62.60;;;;;;4902070;29;20032;-82
2023/12/25 00:14:59;;;;;;;0.32;0.20;;;12.00;60.50;;;;;;4882332;29;20094;-82
2023/12/25 00:17:28;;;;;;;0.32;0.32;;;12.70;63.00;;;;;;4903112;29;20029;-83
2023/12/25 00:19:59;;;;;;;0.25;0.25;;;12.10;62.20;;;;;;4908844;29;20037;-82
2023/12/25 00:22:35;;;;;;;;;;;;;;;;;;;;;
2023/12/25 00:25:01;;;;;;;0.32;0.32;;;12.10;61.80;;;;;;4895749;29;20029;-80
2023/12/25 00:27:48;;;;;;;1.05;0.40;;;12.10;61.20;;;;;;4899048;29;20044;-80
2023/12/25 00:30:42;;;;;;;0.52;0.30;;;12.10;60.00;;;;;;4900179;29;20036;-83
2023/12/25 00:33:08;;;;;;;0.20;0.20;;;11.30;63.70;;;;;;4863743;29;20204;-82
2023/12/25 00:35:41;;;;;;;0.52;0.32;;;12.00;64.70;;;;;;4898338;29;20561;-83
2023/12/25 00:38:06;;;;;;;0.30;0.30;;;11.80;63.60;;;;;;4900099;29;20075;-81
2023/12/25 00:40:39;;;;;;;1.20;0.30;;;11.80;63.50;;;;;;4899822;29;20025;-81
2023/12/25 00:43:05;;;;;;;0.20;0.20;;;11.70;64.00;;;;;;4903600;29;20028;-82
2023/12/25 00:45:31;;;;;;;0.30;0.30;;;11.70;64.30;;;;;;4898256;29;20029;-80
2023/12/25 00:47:59;;;;;;;0.20;0.20;;;11.70;64.60;;;;;;4876658;29;20336;-82
2023/12/25 00:50:49;;;;;;;0.20;0.20;;;11.60;63.10;;;;;;4894577;29;20075;-80
2023/12/25 00:53:30;;;;;;;0.20;0.20;;;11.70;62.80;;;;;;4879352;29;20048;-80
2023/12/25 00:55:56;;;;;;;0.40;0.40;;;11.70;63.70;;;;;;4881190;29;20074;-80
2023/12/25 01:01:23;;;;;;;0.40;0.32;;;11.80;62.00;;;;;;4837473;29;20499;-83
2023/12/25 01:03:49;;;;;;;0.60;0.60;;;11.70;61.20;;;;;;4830820;29;20047;-76
2023/12/25 01:06:15;;;;;;;0.90;0.35;;;11.70;63.40;;;;;;4859581;29;21790;-80
2023/12/25 01:09:04;;;;;;;0.20;0.20;;;11.70;62.50;;;;;;4856923;29;20055;-79
2023/12/25 01:11:31;;;;;;;0.28;0.28;;;11.80;61.20;;;;;;4856494;29;20025;-80
2023/12/25 01:13:57;;;;;;;0.45;0.40;;;11.80;61.50;;;;;;4875311;29;20017;-83
2023/12/25 01:16:26;;;;;;;0.77;0.52;;;11.80;61.80;;;;;;4880051;29;20032;-84
2023/12/25 01:18:52;;;;;;;0.50;0.40;;;11.80;61.80;;;;;;4909221;29;20036;-79
2023/12/25 01:21:28;;;;;;;0.15;0.15;;;11.80;61.80;;;;;;4905025;29;20037;-81
2023/12/25 01:23:55;;;;;;;0.60;0.30;;;11.80;62.60;;;;;;4906012;29;20404;-84
2023/12/25 01:26:24;;;;;;;0.20;0.20;;;11.70;63.00;;;;;;4911776;29;20021;-82
2023/12/25 01:28:53;;;;;;;0.20;0.20;;;11.70;63.70;;;;;;4900579;29;20078;-83
2023/12/25 01:32:29;;;;;;;1.48;0.20;;;11.60;64.00;;;;;;4912171;29;20028;-84
2023/12/25 01:35:13;;;;;;;0.30;0.30;;;11.60;63.70;;;;;;4821695;29;20044;-83
2023/12/25 01:37:40;;;;;;;0.20;0.20;;;11.60;62.70;;;;;;4818077;29;20030;-82
2023/12/25 01:40:43;;;;;;;0.30;0.30;;;11.60;62.60;;;;;;4858397;29;20072;-77
2023/12/25 01:43:09;;;;;;;0.38;0.38;;;11.60;63.80;;;;;;4886529;29;20059;-79
2023/12/25 01:45:35;;;;;;;1.85;0.28;;;11.50;64.50;;;;;;4878997;29;20062;-79
2023/12/25 01:48:02;;;;;;;1.20;0.40;;;11.50;63.60;;;;;;4891804;29;20040;-81
2023/12/25 01:50:29;;;;;;;0.68;0.40;;;11.40;65.10;;;;;;4895633;29;20432;-81
2023/12/25 01:52:58;;;;;;;0.40;0.40;;;11.30;68.00;;;;;;4891711;29;20032;-80
2023/12/25 01:55:24;;;;;;;0.30;0.30;;;11.20;64.90;;;;;;4877945;29;20025;-79
2023/12/25 01:57:50;;;;;;;0.38;0.30;;;11.20;67.30;;;;;;4899609;29;20060;-78
2023/12/25 02:00:16;;;;;;;0.38;0.30;;;11.20;67.00;;;;;;4906364;29;20025;-81
2023/12/25 02:02:42;;;;;;;0.40;0.40;;;11.20;65.60;;;;;;4903368;29;20116;-80
2023/12/25 02:05:09;;;;;;;0.30;0.30;;;11.20;67.90;;;;;;4901084;29;20028;-80
2023/12/25 02:08:26;;;;;;;1.55;0.40;;;11.20;65.20;;;;;;4900212;29;20386;-79
2023/12/25 02:10:52;;;;;;;0.75;0.38;;;11.20;66.70;;;;;;4838530;29;20109;-78
2023/12/25 02:13:20;;;;;;;0.55;0.40;;;11.20;65.60;;;;;;4891981;29;20527;-80
2023/12/25 02:15:48;;;;;;;0.55;0.20;;;11.20;64.80;;;;;;4897972;29;20033;-80
2023/12/25 02:18:53;;;;;;;0.20;0.20;;;11.30;62.70;;;;;;4881730;29;20032;-79
2023/12/25 02:21:55;;;;;;;0.75;0.25;;;11.50;61.90;;;;;;4835542;29;20415;-81
2023/12/25 02:24:39;;;;;;;0.30;0.22;;;11.50;62.40;;;;;;4817631;29;20065;-78
2023/12/25 02:27:05;;;;;;;1.33;0.25;;;11.60;61.90;;;;;;4870554;29;20041;-82
2023/12/25 02:29:34;;;;;;;0.28;0.28;;;11.70;60.20;;;;;;4898453;29;20482;-79
2023/12/25 02:32:00;;;;;;;0.52;0.50;;;11.70;61.10;;;;;;4897671;29;20363;-80
2023/12/25 02:34:26;;;;;;;0.80;0.30;;;11.80;60.00;;;;;;4879642;29;20502;-79
2023/12/25 02:37:03;;;;;;;0.32;0.20;;;11.80;59.90;;;;;;4880471;29;20056;-80
2023/12/25 02:39:29;;;;;;;0.30;0.30;;;11.80;59.20;;;;;;4903686;29;20390;-78
2023/12/25 02:41:55;;;;;;;0.20;0.20;;;11.90;59.70;;;;;;4902229;29;20534;-79
2023/12/25 02:45:06;;;;;;;0.28;0.28;;;11.90;58.40;;;;;;4896406;29;20028;-77
2023/12/25 02:47:07;;;;;;;0.20;0.20;;;12.00;59.10;;;;;;4889527;29;20439;-79
2023/12/25 02:49:55;;;;;;;0.63;0.30;;;12.00;59.20;;;;;;4897072;29;20037;-79
2023/12/25 02:52:23;;;;;;;0.10;0.10;;;12.00;59.70;;;;;;4901028;29;20043;-83
2023/12/25 02:54:50;;;;;;;0.20;0.20;;;11.90;59.40;;;;;;4878525;29;20107;-81
2023/12/25 02:57:25;;;;;;;0.22;0.20;;;11.90;59.40;;;;;;4862240;29;20043;-81
2023/12/25 02:59:51;;;;;;;0.20;0.20;;;11.90;60.10;;;;;;4878639;29;20033;-79
2023/12/25 03:02:20;;;;;;;0.20;0.20;;;11.80;64.30;;;;;;4873622;29;20144;-81
2023/12/25 03:04:46;;;;;;;0.17;0.17;;;11.60;62.50;;;;;;4878997;29;20099;-79
2023/12/25 03:07:15;;;;;;;0.35;0.20;;;11.60;61.90;;;;;;4889706;29;20029;-79
2023/12/25 03:09:41;;;;;;;0.32;0.32;;;11.50;64.30;;;;;;4896389;29;20048;-79
2023/12/25 03:12:07;;;;;;;0.32;0.25;;;12.70;61.70;;;;;;4896724;29;20036;-79
2023/12/25 03:14:33;;;;;;;0.25;0.25;;;11.60;61.90;;;;;;4898104;29;20084;-80
2023/12/25 03:17:02;;;;;;;0.20;0.20;;;11.70;61.90;;;;;;4894270;29;20112;-79
2023/12/25 03:19:28;;;;;;;0.47;0.20;;;11.50;62.70;;;;;;4894983;29;20501;-79
2023/12/25 03:21:54;;;;;;;0.45;0.28;;;11.40;65.20;;;;;;4896408;29;20049;-79
2023/12/25 03:24:20;;;;;;;0.20;0.20;;;11.30;65.50;;;;;;4879197;29;20043;-79
2023/12/25 03:26:49;;;;;;;0.30;0.30;;;11.10;66.60;;;;;;4896064;29;20082;-81
2023/12/25 03:29:15;;;;;;;0.90;0.30;;;10.90;67.90;;;;;;4897435;29;20123;-78
2023/12/25 03:31:41;;;;;;;0.52;0.40;;;10.70;68.20;;;;;;4877220;29;23148;-81
2023/12/25 03:34:44;;;;;;;0.60;0.60;;;10.50;67.10;;;;;;4896051;29;20203;-79
2023/12/25 03:37:10;;;;;;;0.40;0.40;;;10.40;68.90;;;;;;4884741;29;20029;-80
2023/12/25 03:39:36;;;;;;;0.20;0.20;;;10.20;70.30;;;;;;4879554;29;20021;-79
2023/12/25 03:42:02;;;;;;;0.60;0.60;;;10.00;70.70;;;;;;4880096;29;20035;-80
2023/12/25 03:44:28;;;;;;;0.28;0.28;;;9.80;69.90;;;;;;4899105;29;20051;-81
2023/12/25 03:46:53;;;;;;;0.45;0.45;;;9.70;71.60;;;;;;4882047;29;20032;-80
2023/12/25 03:49:20;;;;;;;0.45;0.30;;;9.50;73.00;;;;;;4865514;29;20100;-79
2023/12/25 03:51:46;;;;;;;0.47;0.47;;;9.30;73.70;;;;;;4878970;29;20021;-79
2023/12/25 03:54:12;;;;;;;0.35;0.35;;;9.10;74.40;;;;;;4862922;29;20040;-80
2023/12/25 03:56:40;;;;;;;0.38;0.30;;;9.00;75.10;;;;;;4865039;29;20041;-82
2023/12/25 03:59:09;;;;;;;0.37;0.37;;;8.90;75.90;;;;;;4891164;29;20060;-83
2023/12/25 04:01:38;;;;;;;0.40;0.40;;;8.90;76.20;;;;;;4895882;29;20278;-78
2023/12/25 04:04:07;;;;;;;0.80;0.30;;;8.70;77.90;;;;;;4890813;29;20029;-77
2023/12/25 04:06:33;;;;;;;0.73;0.70;;;8.60;77.40;;;;;;4876326;29;20242;-79
2023/12/25 04:09:01;;;;;;;1.50;0.50;;;8.60;79.10;;;;;;4895271;29;20036;-79
2023/12/25 04:11:30;;;;;;;0.70;0.50;;;8.30;81.00;;;;;;4895951;29;20035;-80
2023/12/25 04:15:26;;;;;;;0.25;0.25;;;8.10;83.20;;;;;;4895578;29;20108;-80
2023/12/25 04:17:46;;;;;;;0.65;0.40;;;7.80;84.60;;;;;;4835449;29;20049;-78
2023/12/25 04:23:33;;;;;;;0.63;0.63;;;7.40;87.20;;;;;;4818807;29;20127;-78
2023/12/25 04:25:58;;;;;;;0.40;0.40;;;7.40;87.60;;;;;;4817937;29;20080;-77
2023/12/25 04:28:24;;;;;;;1.00;0.70;;;7.30;90.40;;;;;;4846456;29;20049;-77
2023/12/25 04:34:59;;;;;;;1.17;0.60;;;7.00;91.00;;;;;;4868852;29;20033;-80
2023/12/25 04:38:00;;;;;;;0.63;0.60;;;7.00;91.00;;;;;;4785130;29;20091;-79
2023/12/25 04:40:26;;;;;;;2.28;0.68;;;7.10;90.80;;;;;;4817702;29;20042;-77
2023/12/25 04:42:51;;;;;;;1.10;0.70;;;7.10;90.80;;;;;;4864996;29;20057;-81
2023/12/25 04:45:18;;;;;;;0.60;0.60;;;7.30;89.90;;;;;;4879617;29;20116;-76
2023/12/25 04:47:52;;;;;;;1.50;0.70;;;7.40;88.00;;;;;;4881172;29;20064;-77
2023/12/25 04:51:16;;;;;;;0.50;0.50;;;7.60;86.40;;;;;;4880796;29;20093;-81
2023/12/25 04:59:04;;;;;;;0.55;0.50;;;7.70;88.00;;;;;;4736342;30;20044;-81
2023/12/25 05:01:35;;;;;;;0.82;0.60;;;7.60;87.90;;;;;;4650964;29;20039;-77
2023/12/25 05:04:48;;;;;;;0.57;0.55;;;7.50;88.90;;;;;;4818634;29;20046;-78
2023/12/25 05:07:13;;;;;;;0.65;0.65;;;7.50;87.80;;;;;;4811813;29;20242;-79
2023/12/25 05:09:40;;;;;;;0.85;0.60;;;7.50;86.90;;;;;;4841934;29;20463;-81
2023/12/25 05:15:59;;;;;;;0.63;0.60;;;7.40;89.30;;;;;;4811598;29;20037;-76
2023/12/25 05:18:37;;;;;;;2.70;0.80;;;7.30;89.60;;;;;;4861621;29;20501;-77
2023/12/25 05:21:06;;;;;;;0.52;0.45;;;7.20;89.90;;;;;;4884430;29;20446;-79
2023/12/25 05:23:32;;;;;;;1.60;0.65;;;7.30;89.70;;;;;;4894396;29;20032;-78
2023/12/25 05:25:57;;;;;;;0.50;0.50;;;7.20;90.00;;;;;;4892437;29;20087;-76
2023/12/25 05:28:23;;;;;;;2.05;0.80;;;7.30;89.80;;;;;;4896570;29;20052;-79
2023/12/25 05:30:49;;;;;;;1.02;0.70;;;7.30;89.80;;;;;;4877632;29;20052;-79
2023/12/25 05:33:14;;;;;;;0.50;0.50;;;6.40;88.60;;;;;;4893001;29;20025;-79
2023/12/25 05:35:40;;;;;;;0.60;0.60;;;7.30;90.10;;;;;;4898038;29;20021;-79
2023/12/25 05:38:05;;;;;;;0.50;0.50;;;7.30;89.50;;;;;;4881644;29;20031;-79
2023/12/25 05:40:31;;;;;;;0.80;0.80;;;7.30;90.10;;;;;;4897837;29;20037;-79
2023/12/25 05:42:57;;;;;;;0.82;0.77;;;7.30;90.20;;;;;;4898435;29;20029;-80
2023/12/25 05:45:23;;;;;;;0.98;0.60;;;7.30;90.20;;;;;;4895262;29;20184;-79
2023/12/25 05:47:48;;;;;;;1.83;0.68;;;7.30;90.60;;;;;;4894013;29;20024;-79
2023/12/25 05:50:14;;;;;;;1.08;0.73;;;7.20;90.80;;;;;;4897666;29;20039;-80
2023/12/25 05:52:40;;;;;;;1.38;0.75;;;7.20;90.80;;;;;;4897791;29;20037;-79
2023/12/25 05:55:06;;;;;;;1.40;0.50;;;7.20;91.10;;;;;;4896750;29;20363;-79
2023/12/25 05:57:32;;;;;;;1.17;0.90;;;7.10;91.40;;;;;;4897738;29;20059;-79
2023/12/25 05:59:58;;;;;;;1.95;1.45;;;7.00;92.10;;;;;;4896878;29;20029;-79
2023/12/25 06:02:23;;;;;;;1.17;0.70;;;7.00;92.20;;;;;;4896085;29;20028;-80
2023/12/25 06:04:49;;;;;;;0.85;0.65;;;6.90;92.60;;;;;;4897960;29;20025;-80
2023/12/25 06:07:15;;;;;;;0.70;0.70;;;6.90;92.60;;;;;;4881589;29;20192;-79
2023/12/25 06:09:40;;;;;;;0.93;0.80;;;6.90;92.50;;;;;;4898403;29;20123;-80
2023/12/25 06:12:06;;;;;;;1.02;0.90;;;6.90;93.10;;;;;;4897501;29;20081;-79
2023/12/25 06:14:32;;;;;;;0.90;0.90;;;6.90;92.90;;;;;;4897516;29;20028;-79
2023/12/25 06:16:57;;;;;;;1.10;0.80;;;6.80;92.80;;;;;;4892403;29;20021;-80
2023/12/25 06:19:24;;;;;;;3.67;1.45;;;6.80;93.20;;;;;;4896558;29;20032;-79
2023/12/25 06:21:49;;;;;;;1.13;0.70;;;6.80;93.20;;;;;;4897199;29;20047;-80
2023/12/25 06:24:15;;;;;;;2.03;0.80;;;6.80;93.30;;;;;;4880835;29;20028;-80
2023/12/25 06:27:00;;;;;;;1.73;0.85;;;6.70;94.10;;;;;;4880027;29;20028;-80
2023/12/25 06:29:25;;;;;;;1.65;0.90;;;6.50;94.60;;;;;;4897343;29;20036;-79
2023/12/25 06:31:51;;;;;;;1.23;0.80;;;6.50;95.50;;;;;;4897066;29;20099;-79
2023/12/25 06:34:17;;;;;;;4.18;1.77;;;6.40;96.10;;;;;;4897328;29;20128;-80
2023/12/25 06:39:43;;;;;;;0.73;0.63;;;6.30;97.20;;;;;;4876078;29;20048;-79
2023/12/25 06:42:15;;;;;;;1.00;0.90;;;6.10;98.40;;;;;;4880456;29;20028;-79
2023/12/25 06:44:41;;;;;;;1.85;0.70;;;6.00;99.00;;;;;;4895720;29;20033;-80
2023/12/25 06:47:06;;;;;;;1.00;0.77;;;6.20;99.40;;;;;;4891224;29;20076;-79
2023/12/25 06:49:32;;;;;;;0.82;0.82;;;6.10;99.70;;;;;;4896518;29;20032;-79
2023/12/25 06:51:59;;;;;;;0.82;0.82;;;6.10;99.90;;;;;;4880029;29;20092;-79
2023/12/25 06:54:25;;;;;;;0.70;0.70;;;6.30;99.90;;;;;;4895098;29;20123;-79
2023/12/25 06:56:51;;;;;;;0.75;0.65;;;6.30;99.70;;;;;;4879477;29;20028;-80
2023/12/25 06:59:16;;;;;;;2.05;1.05;;;6.40;99.60;;;;;;4879318;29;20033;-79
2023/12/25 07:01:43;;;;;;;1.17;1.00;;;6.40;99.90;;;;;;4896510;29;20028;-79
2023/12/25 07:04:11;;;;;;;1.13;0.90;;;6.40;99.90;;;;;;4893567;29;20039;-79
2023/12/25 07:06:36;;;;;;;1.65;0.82;;;6.30;99.90;;;;;;4877824;29;20471;-79
2023/12/25 07:09:03;;;;;;;0.60;0.52;;;6.20;99.90;;;;;;4875769;29;20043;-79
2023/12/25 07:11:29;;;;;;;1.30;0.70;;;6.00;99.90;;;;;;4874800;29;20020;-79
2023/12/25 07:13:56;;;;;;;0.80;0.80;;;5.80;99.90;;;;;;4876094;29;20024;-79
2023/12/25 07:16:22;;;;;;;1.00;0.77;;;5.90;99.90;;;;;;4845553;29;20161;-79
2023/12/25 07:18:53;;;;;;;1.92;0.80;;;5.90;99.90;;;;;;4866150;29;20119;-80
2023/12/25 07:21:19;;;;;;;1.27;1.15;;;5.90;99.90;;;;;;4896183;29;20049;-80
2023/12/25 07:23:46;;;;;;;0.65;0.60;;;5.90;99.90;;;;;;4896607;29;20028;-79
2023/12/25 07:26:12;;;;;;;1.10;1.02;;;5.80;99.90;;;;;;4892800;29;20017;-80
2023/12/25 07:28:37;;;;;;;1.17;0.85;;;5.70;99.90;;;;;;4896196;29;20426;-80
2023/12/25 07:31:03;;;;;;;1.98;0.90;;;5.70;99.90;;;;;;4896713;29;20037;-80
2023/12/25 07:33:29;;;;;;;1.45;0.90;;;5.70;99.90;;;;;;4896329;29;20039;-80
2023/12/25 07:35:55;;;;;;;1.25;0.95;;;5.70;99.90;;;;;;4879270;29;20028;-80
2023/12/25 07:38:20;;;;;;;0.60;0.60;;;5.90;99.90;;;;;;4879068;29;20457;-80
2023/12/25 07:40:50;;;;;;;1.02;1.02;;;6.00;99.90;;;;;;4881375;29;20036;-79
2023/12/25 07:43:15;;;;;;;1.40;1.25;;;6.30;99.90;;;;;;4882612;29;20024;-79
2023/12/25 07:45:41;;;;;;;2.03;0.80;;;6.40;99.90;;;;;;4890152;29;20096;-80
2023/12/25 07:48:07;;;;;;;2.25;1.00;;;6.50;99.90;;;;;;4876475;29;20045;-80
2023/12/25 07:50:33;;;;;;;1.88;0.90;;;6.60;99.90;;;;;;4894122;29;20024;-80
2023/12/25 07:52:59;;;;;;;1.23;1.00;;;6.60;99.90;;;;;;4893836;29;20036;-80
2023/12/25 07:55:24;;;;;;;1.00;0.93;;;6.70;99.90;;;;;;4876286;29;20386;-80
2023/12/25 07:57:50;;;;;;;1.23;1.05;;;6.80;99.90;;;;;;4893914;29;20035;-80
2023/12/25 08:00:16;;;;;;;3.83;1.13;;;6.80;99.90;;;;;;4893536;29;20035;-80
2023/12/25 08:02:42;;;;;;;1.13;0.70;;;6.90;99.90;;;;;;4875042;29;20382;-78
2023/12/25 08:05:07;;;;;;;1.25;0.70;;;7.00;99.90;;;;;;4868711;29;20036;-79
2023/12/25 08:07:34;;;;;;;1.48;0.85;;;7.10;99.90;;;;;;4890851;29;20024;-79
2023/12/25 08:10:00;;;;;;;1.88;0.95;;;7.20;99.90;;;;;;4839859;29;20101;-79
2023/12/25 08:12:25;;;;;;;0.70;0.70;;;7.30;99.90;;;;;;4870406;29;20028;-79
2023/12/25 08:14:51;;;;;;;1.25;1.15;;;7.50;99.10;;;;;;4892135;29;20017;-78
2023/12/25 08:17:17;;;;;;;1.17;0.63;;;7.60;99.30;;;;;;4874769;29;20036;-79
2023/12/25 08:19:43;;;;;;;1.33;0.80;;;7.80;98.80;;;;;;4896982;29;20652;-80
2023/12/25 08:22:08;;;;;;;1.77;1.25;;;7.90;98.50;;;;;;4894172;29;20060;-79
2023/12/25 08:24:37;;;;;;;1.08;0.98;;;8.00;98.30;;;;;;4891677;29;20123;-79
2023/12/25 08:27:03;;;;;;;0.75;0.70;;;8.00;98.10;;;;;;4895030;29;20025;-78
2023/12/25 08:29:29;;;;;;;2.92;1.27;;;8.10;97.20;;;;;;4895444;29;20486;-78
2023/12/25 08:31:55;;;;;;;0.63;0.63;;;8.10;96.70;;;;;;4895227;29;20024;-80
2023/12/25 08:34:23;;;;;;;1.08;0.95;;;8.10;96.60;;;;;;4877702;29;20124;-79
2023/12/25 08:36:49;;;;;;;0.55;0.55;;;8.20;96.90;;;;;;4877971;29;20487;-80
2023/12/25 08:39:15;;;;;;;6.53;0.70;;;7.90;95.20;;;;;;4878084;29;20029;-80
2023/12/25 08:41:41;;;;;;;0.60;0.60;;;8.30;95.40;;;;;;4894785;29;20470;-79
2023/12/25 08:44:07;;;;;;;1.67;1.50;;;8.40;94.80;;;;;;4894497;29;20040;-80
2023/12/25 08:46:33;;;;;;;0.88;0.77;;;8.40;94.80;;;;;;4895037;29;20347;-77
2023/12/25 08:48:59;;;;;;;1.45;1.08;;;8.50;94.70;;;;;;4895067;29;20675;-78
2023/12/25 08:51:25;;;;;;;3.08;1.40;;;8.60;93.20;;;;;;4878089;29;20119;-79
2023/12/25 08:53:51;;;;;;;2.47;1.50;;;8.60;93.20;;;;;;4870526;29;20414;-79
2023/12/25 08:56:26;;;;;;;0.82;0.63;;;8.60;92.90;;;;;;4894236;29;20025;-79
2023/12/25 08:58:52;;;;;;;7.32;3.47;;;8.70;91.80;;;;;;4877851;29;20132;-79
2023/12/25 09:01:27;;;;;;;2.80;0.95;;;8.80;91.90;;;;;;4895177;29;20096;-77
2023/12/25 09:03:53;;;;;;;1.40;1.23;;;8.80;90.40;;;;;;4894269;29;20051;-79
2023/12/25 09:06:19;;;;;;;2.38;1.35;;;8.90;90.90;;;;;;4888363;29;20025;-78
2023/12/25 09:08:46;;;;;;;3.17;1.15;;;9.00;90.10;;;;;;4871481;29;20059;-79
2023/12/25 09:11:11;;;;;;;2.28;0.93;;;9.10;89.40;;;;;;4869444;29;20581;-78
2023/12/25 09:13:37;;;;;;;1.33;1.23;;;9.10;90.00;;;;;;4863245;29;20873;-79
2023/12/25 09:16:03;;;;;;;4.38;2.38;;;9.10;89.60;;;;;;4875129;29;20025;-79
2023/12/25 09:18:29;;;;;;;0.88;0.73;;;9.10;89.30;;;;;;4898728;29;20071;-79
2023/12/25 09:20:57;;;;;;;3.08;1.40;;;9.00;88.40;;;;;;4881537;29;20045;-79
2023/12/25 09:23:23;;;;;;;3.90;1.58;;;9.10;89.20;;;;;;4898523;29;20039;-79
2023/12/25 09:25:49;;;;;;;6.05;2.25;;;7.90;88.50;;;;;;4896562;29;20363;-79
2023/12/25 09:28:14;;;;;;;11.50;5.05;;;9.10;89.00;;;;;;4896953;29;20104;-79
2023/12/25 09:30:40;;;;;;;15.57;3.85;;;9.10;88.20;;;;;;4896468;29;20432;-79
2023/12/25 09:33:42;;;;;;;1.80;1.40;;;9.00;88.70;;;;;;4897058;29;20603;-79
2023/12/25 09:36:08;;;;;;;2.60;1.60;;;9.00;89.70;;;;;;4898369;29;20025;-79
2023/12/25 09:38:40;;;;;;;0.50;0.50;;;9.00;90.00;;;;;;4881558;29;20098;-79
2023/12/25 09:41:11;;;;;;;0.70;0.70;;;9.00;90.10;;;;;;4886459;29;20021;-80
2023/12/25 09:43:43;;;;;;;1.50;0.95;;;9.00;90.50;;;;;;4896690;29;20033;-80
2023/12/25 09:46:10;;;;;;;0.60;0.60;;;9.10;90.80;;;;;;4879736;29;20446;-80
2023/12/25 09:48:38;;;;;;;8.27;0.95;;;9.20;90.80;;;;;;4897200;29;20304;-78
2023/12/25 09:51:09;;;;;;;0.65;0.52;;;9.20;90.70;;;;;;4880018;29;20033;-79
2023/12/25 09:53:35;;;;;;;0.80;0.50;;;9.20;91.00;;;;;;4902172;29;20024;-79
2023/12/25 09:56:03;;;;;;;0.60;0.60;;;9.20;91.00;;;;;;4870941;29;20076;-78
2023/12/25 09:58:29;;;;;;;0.85;0.50;;;9.30;91.50;;;;;;4913193;29;20537;-79
2023/12/25 10:00:55;;;;;;;0.47;0.47;;;9.50;91.20;;;;;;4901697;29;20493;-78
2023/12/25 10:03:22;;;;;;;0.60;0.60;;;9.00;91.20;;;;;;4877858;29;20041;-78
2023/12/25 10:05:47;;;;;;;0.73;0.63;;;9.70;91.30;;;;;;4877867;29;20031;-78
2023/12/25 10:08:13;;;;;;;0.88;0.57;;;9.90;90.40;;;;;;4865998;29;20037;-77
2023/12/25 10:10:39;;;;;;;1.13;0.60;;;10.00;90.20;;;;;;4897408;29;20277;-78
2023/12/25 10:13:04;;;;;;;1.00;0.52;;;10.00;89.20;;;;;;4886025;29;20029;-78
2023/12/25 10:15:30;;;;;;;1.75;0.80;;;10.00;90.30;;;;;;4894922;29;20041;-79
2023/12/25 10:18:06;;;;;;;2.30;0.82;;;10.00;89.70;;;;;;4875570;29;20033;-78
2023/12/25 10:20:32;;;;;;;0.85;0.85;;;10.00;90.30;;;;;;4895340;29;20120;-78
2023/12/25 10:23:00;;;;;;;1.17;1.05;;;10.20;90.20;;;;;;4895581;29;20071;-78
2023/12/25 10:25:29;;;;;;;1.90;0.50;;;10.20;90.20;;;;;;4895040;29;20025;-78
2023/12/25 10:27:55;;;;;;;1.38;0.50;;;10.20;90.70;;;;;;4895491;29;20034;-78
2023/12/25 10:30:27;;;;;;;3.83;0.90;;;10.20;90.20;;;;;;4891265;29;20020;-79
2023/12/25 10:33:14;;;;;;;0.45;0.45;;;10.30;90.10;;;;;;4895149;29;20028;-79
2023/12/25 10:35:41;;;;;;;0.63;0.63;;;10.10;86.30;;;;;;4879479;29;20462;-77
2023/12/25 10:38:07;;;;;;;1.58;0.57;;;10.20;86.60;;;;;;4895836;29;20056;-78
2023/12/25 10:40:36;;;;;;;0.98;0.40;;;10.30;85.20;;;;;;4895822;29;20736;-77
2023/12/25 10:43:02;;;;;;;2.97;0.60;;;10.40;86.10;;;;;;4895723;29;20035;-78
2023/12/25 10:45:30;;;;;;;1.80;0.60;;;10.40;86.70;;;;;;4897026;29;20020;-77
2023/12/25 10:47:58;;;;;;;1.30;0.90;;;10.40;84.40;;;;;;4873340;29;20085;-77
2023/12/25 10:50:30;;;;;;;1.63;0.50;;;10.40;84.10;;;;;;4877872;29;20021;-77
2023/12/25 10:53:00;;;;;;;0.68;0.50;;;10.40;84.90;;;;;;4862264;29;20100;-80
2023/12/25 10:55:41;;;;;;;0.32;0.32;;;10.30;85.70;;;;;;4882314;29;20028;-77
2023/12/25 10:58:08;;;;;;;1.23;0.50;;;10.30;85.30;;;;;;4879921;29;20025;-78
2023/12/25 11:00:42;;;;;;;1.23;0.65;;;10.40;85.50;;;;;;4901368;29;20537;-77
2023/12/25 11:03:10;;;;;;;0.38;0.38;;;10.40;87.20;;;;;;4895304;29;20092;-77
2023/12/25 11:05:39;;;;;;;1.98;0.65;;;10.40;85.60;;;;;;4875169;29;20043;-77
2023/12/25 11:08:05;;;;;;;0.55;0.43;;;10.50;86.90;;;;;;4843731;29;20490;-77
2023/12/25 11:13:17;;;;;;;0.82;0.45;;;10.60;88.70;;;;;;4851075;29;20044;-77
2023/12/25 11:15:43;;;;;;;1.98;0.50;;;10.70;87.90;;;;;;4868644;29;20095;-77
2023/12/25 11:18:37;;;;;;;;;;;;;;;;;;;;;
2023/12/25 11:21:07;;;;;;;1.20;0.40;;;10.80;86.90;;;;;;4867512;29;20308;-78
2023/12/25 11:24:11;;;;;;;1.35;0.63;;;10.90;89.70;;;;;;4900756;29;20277;-78
2023/12/25 11:27:02;;;;;;;1.02;0.70;;;10.90;90.10;;;;;;4888537;29;20020;-77
2023/12/25 11:35:58;;;;;;;0.60;0.55;;;11.00;89.00;;;;;;4893684;29;20148;-78
2023/12/25 11:38:46;;;;;;;1.80;1.05;;;10.90;87.20;;;;;;4876289;29;20012;-78
2023/12/25 11:43:00;;;;;;;;;;;;;;;;;;;;;
2023/12/25 11:45:54;;;;;;;;;;;;;;;;;;;;;
2023/12/25 12:02:28;;;;;;;5.30;0.50;;;11.30;87.60;;;;;;4799479;29;20039;-77
2023/12/25 12:09:25;;;;;;;3.03;0.80;;;11.20;90.30;;;;;;4684396;30;20095;-76
2023/12/25 12:12:28;;;;;;;0.60;0.60;;;11.10;91.40;;;;;;4735236;29;20059;-78
2023/12/25 12:18:35;;;;;;;2.58;0.32;;;10.80;92.90;;;;;;4717752;30;20093;-75
2023/12/25 12:21:01;;;;;;;2.80;0.60;;;10.70;92.40;;;;;;4695735;30;20102;-75
2023/12/25 12:23:40;;;;;;;2.45;0.70;;;10.60;93.50;;;;;;4715583;30;20327;-77
2023/12/25 12:27:11;;;;;;;4.25;0.70;;;10.60;93.30;;;;;;4753305;30;20028;-76
2023/12/25 12:30:28;;;;;;;3.00;1.30;;;10.60;94.30;;;;;;4726003;30;20259;-76
2023/12/25 12:37:00;;;;;;;6.45;1.20;;;10.70;94.00;;;;;;4742555;29;20765;-76
2023/12/25 12:45:53;;;;;;;0.95;0.70;;;10.70;94.20;;;;;;4816632;29;20028;-78
2023/12/25 12:48:32;;;;;;;3.30;0.85;;;10.70;94.20;;;;;;4861330;29;21265;-78
2023/12/25 12:53:51;;;;;;;1.80;1.05;;;10.80;94.80;;;;;;4865743;29;20027;-77
2023/12/25 13:14:23;;;;;;;4.35;0.90;;;11.10;93.30;;;;;;4739970;30;20043;-77
2023/12/25 13:19:57;;;;;;;;;;;;;;;;;;;;;
2023/12/25 13:22:47;;;;;;;2.65;1.35;;;11.00;92.60;;;;;;4865234;29;20112;-78
2023/12/25 13:25:48;;;;;;;0.85;0.60;;;10.90;92.70;;;;;;4875561;29;20067;-78
2023/12/25 13:38:55;;;;;;;;;;;;;;;;;;;;;
2023/12/25 13:42:44;;;;;;;0.75;0.75;;;10.40;94.20;;;;;;4787600;29;20839;-78
2023/12/25 13:51:36;;;;;;;2.90;0.70;;;10.10;94.90;;;;;;4736159;29;20038;-77
2023/12/25 13:55:19;;;;;;;2.85;1.00;;;10.10;94.80;;;;;;4779397;29;20042;-79
2023/12/25 14:05:29;;;;;;;4.80;1.10;;;10.00;95.10;;;;;;4705776;30;20029;-78
2023/12/25 14:26:27;;;;;;;;;;;;;;;;;;;;;
2023/12/25 14:35:10;;;;;;;1.20;0.80;;;13.30;83.90;;;;;;4808784;29;20117;-79
2023/12/25 14:41:05;;;;;;;1.50;0.75;;;11.30;90.20;;;;;;4787614;29;20046;-77
2023/12/25 14:47:43;;;;;;;3.75;0.90;;;10.00;93.70;;;;;;4796692;29;20039;-77
2023/12/25 14:50:37;;;;;;;1.07;1.00;;;9.70;94.70;;;;;;4773176;29;20096;-78
2023/12/25 14:53:35;;;;;;;4.03;1.80;;;9.50;95.50;;;;;;4774238;29;20045;-78
2023/12/25 15:26:24;;;;;;;1.63;1.02;;;8.10;99.90;;;;;;4809282;29;20048;-80
2023/12/25 15:29:42;;;;;;;4.47;1.23;;;8.10;99.90;;;;;;4860720;29;20091;-78
2023/12/25 15:33:21;;;;;;;2.47;1.55;;;7.80;99.90;;;;;;4806235;29;20059;-78
2023/12/25 15:35:47;;;;;;;1.13;1.02;;;7.90;99.90;;;;;;4715945;30;20677;-78
2023/12/25 15:38:12;;;;;;;5.60;1.98;;;7.90;99.90;;;;;;4782609;29;20041;-78
2023/12/25 15:40:38;;;;;;;1.35;1.15;;;7.90;99.90;;;;;;4812043;29;20026;-79
2023/12/25 15:44:03;;;;;;;2.03;1.38;;;7.80;99.90;;;;;;4893608;29;20020;-78
2023/12/25 15:46:29;;;;;;;2.38;1.50;;;7.80;99.90;;;;;;4865585;29;20039;-77
2023/12/25 15:49:55;;;;;;;2.22;1.17;;;7.70;99.90;;;;;;4869056;29;20400;-78
2023/12/25 15:52:53;;;;;;;2.08;1.33;;;7.50;99.90;;;;;;4846245;29;20036;-78
2023/12/25 16:02:02;;;;;;;2.38;1.40;;;7.30;99.90;;;;;;4864279;29;20033;-78
2023/12/25 16:07:56;;;;;;;2.60;1.52;;;7.10;99.90;;;;;;4837382;29;20046;-77
2023/12/25 16:17:20;;;;;;;3.53;2.17;;;6.50;99.90;;;;;;4811292;29;20033;-77
2023/12/25 16:19:46;;;;;;;8.77;2.60;;;6.30;99.90;;;;;;4853226;29;20028;-78
2023/12/25 16:22:15;;;;;;;4.85;1.90;;;6.30;99.90;;;;;;4851099;29;20071;-78
2023/12/25 16:25:35;;;;;;;5.93;2.30;;;6.10;99.90;;;;;;4863716;29;20108;-78
2023/12/25 16:28:05;;;;;;;3.85;2.08;;;6.00;99.90;;;;;;4868198;29;20107;-80
2023/12/25 16:30:34;;;;;;;2.78;1.70;;;6.10;99.90;;;;;;4867359;29;20035;-80
2023/12/25 16:33:18;;;;;;;;;;;;;;;;;;;;;
2023/12/25 16:39:52;;;;;;;1.35;1.20;;;5.90;99.90;;;;;;4844042;29;20534;-80
2023/12/25 16:42:24;;;;;;;3.13;1.23;;;5.80;99.90;;;;;;4866321;29;20055;-77
2023/12/25 16:44:50;;;;;;;4.22;1.83;;;5.50;99.90;;;;;;4857875;29;20028;-81